AAL2293 KPWM-KPHL
Flight info
| Callsign | AAL2293 |
|---|---|
| Flight time | 1h 16m |
| Altitude | 32000 |
| Route | NUBLE4 JJIMY ORW RIFLE Q439 BRIGS JIIMS4 |
| Aircraft | A320/M-SDE3FGHIRWY/LB1 |
Departure
| Time | 2026-05-03 23:54 |
|---|---|
| Airport | Portland International Jetport (KPWM) |
Arrival
| Time | 2026-05-04 01:11 |
|---|---|
| Airport | Philadelphia International Airport (KPHL) |
| Time | Latitude | Longitude | Altitude | Speed | Heading |
|---|---|---|---|---|---|
| 2026-05-03 23:23 | 43.64675 | -70.30933 | 61 ft | 0 kts | 4° |
| 2026-05-03 23:45 | 43.64674 | -70.30933 | 60 ft | 2 kts | 4° |
| 2026-05-03 23:45 | 43.64649 | -70.30934 | 53 ft | 4 kts | 356° |
| 2026-05-03 23:46 | 43.64623 | -70.30929 | 58 ft | 4 kts | 348° |
| 2026-05-03 23:46 | 43.64596 | -70.30922 | 56 ft | 4 kts | 2° |
| 2026-05-03 23:46 | 43.64584 | -70.30918 | 52 ft | 2 kts | 93° |
| 2026-05-03 23:46 | 43.64584 | -70.30927 | 52 ft | 0 kts | 95° |
| 2026-05-03 23:50 | 43.64582 | -70.30895 | 56 ft | 6 kts | 96° |
| 2026-05-03 23:50 | 43.64577 | -70.30824 | 58 ft | 7 kts | 95° |
| 2026-05-03 23:51 | 43.64571 | -70.30736 | 53 ft | 11 kts | 95° |
| 2026-05-03 23:51 | 43.64565 | -70.30634 | 59 ft | 10 kts | 95° |
| 2026-05-03 23:51 | 43.64559 | -70.30561 | 54 ft | 8 kts | 96° |
| 2026-05-03 23:51 | 43.64553 | -70.30473 | 58 ft | 11 kts | 95° |
| 2026-05-03 23:52 | 43.64546 | -70.30351 | 51 ft | 15 kts | 95° |
| 2026-05-03 23:52 | 43.64537 | -70.30232 | 56 ft | 13 kts | 96° |
| 2026-05-03 23:52 | 43.64530 | -70.30120 | 54 ft | 11 kts | 95° |
| 2026-05-03 23:52 | 43.64524 | -70.30033 | 53 ft | 11 kts | 95° |
| 2026-05-03 23:53 | 43.64498 | -70.29929 | 50 ft | 15 kts | 136° |
| 2026-05-03 23:53 | 43.64420 | -70.29931 | 48 ft | 12 kts | 215° |
| 2026-05-03 23:53 | 43.64411 | -70.30020 | 49 ft | 9 kts | 273° |
| 2026-05-03 23:53 | 43.64433 | -70.30308 | 51 ft | 62 kts | 275° |
| 2026-05-03 23:54 | 43.64490 | -70.31168 | 59 ft | 115 kts | 275° |
| 2026-05-03 23:54 | 43.64581 | -70.32440 | 180 ft | 145 kts | 276° |
| 2026-05-03 23:54 | 43.64662 | -70.33878 | 506 ft | 157 kts | 275° |
| 2026-05-03 23:54 | 43.64722 | -70.35498 | 800 ft | 181 kts | 275° |
| 2026-05-03 23:55 | 43.64789 | -70.37354 | 1164 ft | 207 kts | 275° |
| 2026-05-03 23:55 | 43.64868 | -70.39451 | 1696 ft | 230 kts | 276° |
| 2026-05-03 23:55 | 43.64954 | -70.41692 | 2497 ft | 237 kts | 276° |
| 2026-05-03 23:55 | 43.64970 | -70.43996 | 2903 ft | 243 kts | 264° |
| 2026-05-03 23:56 | 43.64259 | -70.46129 | 3004 ft | 253 kts | 233° |
| 2026-05-03 23:56 | 43.62847 | -70.47637 | 3033 ft | 261 kts | 219° |
| 2026-05-03 23:56 | 43.61319 | -70.49027 | 3869 ft | 263 kts | 218° |
| 2026-05-03 23:56 | 43.59785 | -70.50410 | 4885 ft | 265 kts | 219° |
| 2026-05-03 23:57 | 43.58233 | -70.51815 | 5824 ft | 269 kts | 219° |
| 2026-05-03 23:57 | 43.56662 | -70.53238 | 6709 ft | 272 kts | 219° |
| 2026-05-03 23:57 | 43.55069 | -70.54687 | 7588 ft | 275 kts | 219° |
| 2026-05-03 23:57 | 43.53465 | -70.56146 | 8482 ft | 278 kts | 218° |
| 2026-05-03 23:58 | 43.51700 | -70.57340 | 9358 ft | 288 kts | 204° |
| 2026-05-03 23:58 | 43.49762 | -70.58141 | 10132 ft | 293 kts | 201° |
| 2026-05-03 23:58 | 43.47741 | -70.58969 | 10454 ft | 314 kts | 202° |
| 2026-05-03 23:58 | 43.45575 | -70.59866 | 10750 ft | 333 kts | 201° |
| 2026-05-03 23:59 | 43.43333 | -70.60788 | 11366 ft | 340 kts | 201° |
| 2026-05-03 23:59 | 43.41047 | -70.61718 | 12063 ft | 344 kts | 201° |
| 2026-05-03 23:59 | 43.38737 | -70.62655 | 12779 ft | 348 kts | 201° |
| 2026-05-03 23:59 | 43.36393 | -70.63607 | 13504 ft | 352 kts | 202° |
| 2026-05-04 00:00 | 43.34035 | -70.64568 | 14131 ft | 356 kts | 202° |
| 2026-05-04 00:00 | 43.31649 | -70.65542 | 14722 ft | 360 kts | 202° |
| 2026-05-04 00:00 | 43.29233 | -70.66524 | 15318 ft | 364 kts | 202° |
| 2026-05-04 00:00 | 43.26793 | -70.67515 | 15912 ft | 368 kts | 202° |
| 2026-05-04 00:01 | 43.24326 | -70.68519 | 16502 ft | 372 kts | 202° |
| 2026-05-04 00:01 | 43.21830 | -70.69535 | 17095 ft | 376 kts | 202° |
| 2026-05-04 00:01 | 43.19306 | -70.70563 | 17699 ft | 380 kts | 202° |
| 2026-05-04 00:01 | 43.16783 | -70.71673 | 18272 ft | 381 kts | 208° |
| 2026-05-04 00:02 | 43.14403 | -70.73231 | 18829 ft | 380 kts | 214° |
| 2026-05-04 00:02 | 43.12052 | -70.74924 | 19414 ft | 383 kts | 214° |
| 2026-05-04 00:02 | 43.09685 | -70.76630 | 20002 ft | 386 kts | 214° |
| 2026-05-04 00:02 | 43.07296 | -70.78349 | 20570 ft | 390 kts | 214° |
| 2026-05-04 00:03 | 43.04920 | -70.80057 | 21114 ft | 393 kts | 214° |
| 2026-05-04 00:03 | 43.02492 | -70.81797 | 21664 ft | 396 kts | 214° |
| 2026-05-04 00:03 | 43.00041 | -70.83549 | 22215 ft | 399 kts | 214° |
| 2026-05-04 00:03 | 42.97567 | -70.85319 | 22716 ft | 402 kts | 214° |
| 2026-05-04 00:04 | 42.95079 | -70.87098 | 23263 ft | 405 kts | 214° |
| 2026-05-04 00:04 | 42.92574 | -70.88886 | 23706 ft | 408 kts | 214° |
| 2026-05-04 00:04 | 42.90055 | -70.90683 | 24159 ft | 409 kts | 214° |
| 2026-05-04 00:04 | 42.87527 | -70.92484 | 24642 ft | 411 kts | 213° |
| 2026-05-04 00:05 | 42.84983 | -70.94290 | 25080 ft | 413 kts | 213° |
| 2026-05-04 00:05 | 42.82358 | -70.95951 | 25500 ft | 420 kts | 206° |
| 2026-05-04 00:05 | 42.79592 | -70.97305 | 25909 ft | 423 kts | 205° |
| 2026-05-04 00:05 | 42.76814 | -70.98655 | 26339 ft | 425 kts | 205° |
| 2026-05-04 00:06 | 42.74023 | -71.00011 | 26752 ft | 427 kts | 205° |
| 2026-05-04 00:06 | 42.71223 | -71.01373 | 27151 ft | 429 kts | 205° |
| 2026-05-04 00:06 | 42.68409 | -71.02745 | 27550 ft | 431 kts | 205° |
| 2026-05-04 00:06 | 42.65584 | -71.04126 | 27944 ft | 433 kts | 205° |
| 2026-05-04 00:07 | 42.62740 | -71.05512 | 28315 ft | 435 kts | 205° |
| 2026-05-04 00:07 | 42.59887 | -71.06895 | 28700 ft | 436 kts | 205° |
| 2026-05-04 00:07 | 42.57020 | -71.08281 | 29079 ft | 438 kts | 205° |
| 2026-05-04 00:07 | 42.54144 | -71.09672 | 29464 ft | 440 kts | 205° |
| 2026-05-04 00:08 | 42.51252 | -71.11069 | 29817 ft | 442 kts | 205° |
| 2026-05-04 00:08 | 42.48383 | -71.12453 | 30138 ft | 444 kts | 205° |
| 2026-05-04 00:08 | 42.45427 | -71.13880 | 30440 ft | 446 kts | 205° |
| 2026-05-04 00:08 | 42.42559 | -71.15450 | 30722 ft | 443 kts | 211° |
| 2026-05-04 00:09 | 42.39899 | -71.17525 | 31009 ft | 439 kts | 219° |
| 2026-05-04 00:09 | 42.37439 | -71.19951 | 31336 ft | 438 kts | 221° |
| 2026-05-04 00:09 | 42.35020 | -71.22363 | 31728 ft | 437 kts | 221° |
| 2026-05-04 00:09 | 42.32570 | -71.24800 | 31860 ft | 435 kts | 221° |
| 2026-05-04 00:10 | 42.27785 | -71.29527 | 31830 ft | 422 kts | 221° |
| 2026-05-04 00:10 | 42.23074 | -71.34182 | 31859 ft | 418 kts | 221° |
| 2026-05-04 00:11 | 42.18386 | -71.38815 | 31881 ft | 418 kts | 221° |
| 2026-05-04 00:11 | 42.13696 | -71.43437 | 31887 ft | 418 kts | 221° |
| 2026-05-04 00:12 | 42.09009 | -71.48052 | 31886 ft | 417 kts | 221° |
| 2026-05-04 00:12 | 42.04319 | -71.52658 | 31899 ft | 417 kts | 221° |
| 2026-05-04 00:13 | 41.99633 | -71.57249 | 31909 ft | 417 kts | 221° |
| 2026-05-04 00:13 | 41.94940 | -71.61835 | 31911 ft | 417 kts | 221° |
| 2026-05-04 00:14 | 41.90247 | -71.66411 | 31899 ft | 417 kts | 221° |
| 2026-05-04 00:14 | 41.85557 | -71.70978 | 31911 ft | 416 kts | 221° |
| 2026-05-04 00:15 | 41.80881 | -71.75535 | 31909 ft | 415 kts | 221° |
| 2026-05-04 00:15 | 41.76201 | -71.80081 | 31884 ft | 415 kts | 221° |
| 2026-05-04 00:16 | 41.72314 | -71.83843 | 31896 ft | 415 kts | 221° |
| 2026-05-04 00:16 | 41.67635 | -71.88364 | 31905 ft | 415 kts | 221° |
| 2026-05-04 00:17 | 41.62957 | -71.92877 | 31911 ft | 414 kts | 221° |
| 2026-05-04 00:17 | 41.58282 | -71.97382 | 31897 ft | 414 kts | 221° |
| 2026-05-04 00:18 | 41.53386 | -72.01484 | 31906 ft | 420 kts | 213° |
| 2026-05-04 00:18 | 41.48190 | -72.05017 | 31918 ft | 419 kts | 213° |
| 2026-05-04 00:19 | 41.42999 | -72.08543 | 31920 ft | 419 kts | 213° |
| 2026-05-04 00:19 | 41.37845 | -72.12039 | 31920 ft | 418 kts | 213° |
| 2026-05-04 00:20 | 41.32621 | -72.15581 | 31921 ft | 419 kts | 213° |
| 2026-05-04 00:20 | 41.27431 | -72.19090 | 31915 ft | 419 kts | 213° |
| 2026-05-04 00:21 | 41.22241 | -72.22597 | 31898 ft | 417 kts | 213° |
| 2026-05-04 00:21 | 41.19695 | -72.24316 | 31309 ft | 416 kts | 213° |
| 2026-05-04 00:21 | 41.17113 | -72.26057 | 30610 ft | 417 kts | 214° |
| 2026-05-04 00:22 | 41.14523 | -72.27802 | 29871 ft | 418 kts | 214° |
| 2026-05-04 00:22 | 41.11925 | -72.29550 | 28982 ft | 420 kts | 214° |
| 2026-05-04 00:22 | 41.09318 | -72.31301 | 28082 ft | 421 kts | 213° |
| 2026-05-04 00:22 | 41.06694 | -72.33062 | 27172 ft | 423 kts | 213° |
| 2026-05-04 00:23 | 41.04058 | -72.34831 | 26247 ft | 426 kts | 213° |
| 2026-05-04 00:23 | 41.01411 | -72.36604 | 25308 ft | 427 kts | 213° |
| 2026-05-04 00:23 | 40.98754 | -72.38380 | 24370 ft | 429 kts | 213° |
| 2026-05-04 00:23 | 40.96083 | -72.40164 | 23396 ft | 431 kts | 213° |
| 2026-05-04 00:24 | 40.93400 | -72.41960 | 22431 ft | 430 kts | 213° |
| 2026-05-04 00:24 | 40.90782 | -72.43701 | 22276 ft | 412 kts | 213° |
| 2026-05-04 00:24 | 40.88273 | -72.45359 | 22149 ft | 396 kts | 213° |
| 2026-05-04 00:24 | 40.85853 | -72.46955 | 22011 ft | 382 kts | 213° |
| 2026-05-04 00:25 | 40.83512 | -72.48506 | 21845 ft | 370 kts | 214° |
| 2026-05-04 00:25 | 40.81249 | -72.50014 | 21708 ft | 358 kts | 214° |
| 2026-05-04 00:25 | 40.79048 | -72.51481 | 21407 ft | 351 kts | 215° |
| 2026-05-04 00:25 | 40.76880 | -72.52932 | 20963 ft | 348 kts | 215° |
| 2026-05-04 00:26 | 40.74728 | -72.54374 | 20509 ft | 346 kts | 214° |
| 2026-05-04 00:26 | 40.72586 | -72.55802 | 20081 ft | 344 kts | 214° |
| 2026-05-04 00:26 | 40.70481 | -72.57267 | 19919 ft | 340 kts | 219° |
| 2026-05-04 00:26 | 40.68542 | -72.59017 | 19948 ft | 336 kts | 226° |
| 2026-05-04 00:27 | 40.66807 | -72.61045 | 19939 ft | 332 kts | 232° |
| 2026-05-04 00:27 | 40.65177 | -72.63199 | 19933 ft | 331 kts | 232° |
| 2026-05-04 00:27 | 40.63567 | -72.65312 | 19946 ft | 330 kts | 232° |
| 2026-05-04 00:27 | 40.61918 | -72.67470 | 19956 ft | 330 kts | 232° |
| 2026-05-04 00:28 | 40.60310 | -72.69573 | 19958 ft | 330 kts | 232° |
| 2026-05-04 00:28 | 40.58682 | -72.71699 | 19956 ft | 330 kts | 232° |
| 2026-05-04 00:28 | 40.57051 | -72.73823 | 19957 ft | 330 kts | 232° |
| 2026-05-04 00:28 | 40.55418 | -72.75947 | 19963 ft | 330 kts | 232° |
| 2026-05-04 00:29 | 40.53787 | -72.78073 | 19961 ft | 330 kts | 232° |
| 2026-05-04 00:29 | 40.52158 | -72.80198 | 19963 ft | 330 kts | 231° |
| 2026-05-04 00:29 | 40.50495 | -72.82285 | 19958 ft | 331 kts | 230° |
| 2026-05-04 00:29 | 40.48801 | -72.84338 | 19958 ft | 332 kts | 230° |
| 2026-05-04 00:30 | 40.47093 | -72.86371 | 19959 ft | 331 kts | 229° |
| 2026-05-04 00:30 | 40.45387 | -72.88400 | 19966 ft | 331 kts | 230° |
| 2026-05-04 00:30 | 40.43685 | -72.90429 | 19967 ft | 330 kts | 230° |
| 2026-05-04 00:30 | 40.41990 | -72.92460 | 19967 ft | 330 kts | 230° |
| 2026-05-04 00:31 | 40.40293 | -72.94497 | 19975 ft | 330 kts | 230° |
| 2026-05-04 00:31 | 40.38600 | -72.96532 | 19965 ft | 330 kts | 230° |
| 2026-05-04 00:31 | 40.36905 | -72.98572 | 19967 ft | 331 kts | 230° |
| 2026-05-04 00:31 | 40.35211 | -73.00611 | 19967 ft | 331 kts | 230° |
| 2026-05-04 00:32 | 40.33514 | -73.02650 | 19974 ft | 331 kts | 229° |
| 2026-05-04 00:32 | 40.31818 | -73.04684 | 19975 ft | 331 kts | 229° |
| 2026-05-04 00:32 | 40.30118 | -73.06720 | 19949 ft | 331 kts | 229° |
| 2026-05-04 00:32 | 40.28424 | -73.08746 | 19972 ft | 330 kts | 229° |
| 2026-05-04 00:33 | 40.26729 | -73.10773 | 19980 ft | 330 kts | 229° |
| 2026-05-04 00:33 | 40.23349 | -73.14830 | 19980 ft | 330 kts | 229° |
| 2026-05-04 00:33 | 40.21681 | -73.16831 | 19980 ft | 330 kts | 229° |
| 2026-05-04 00:34 | 40.19967 | -73.18880 | 19983 ft | 330 kts | 229° |
| 2026-05-04 00:34 | 40.18299 | -73.20875 | 19952 ft | 328 kts | 229° |
| 2026-05-04 00:34 | 40.16597 | -73.22906 | 19737 ft | 327 kts | 229° |
| 2026-05-04 00:34 | 40.14935 | -73.24887 | 19563 ft | 328 kts | 229° |
| 2026-05-04 00:35 | 40.13248 | -73.26894 | 19390 ft | 328 kts | 229° |
| 2026-05-04 00:35 | 40.11565 | -73.28895 | 19201 ft | 327 kts | 229° |
| 2026-05-04 00:35 | 40.09887 | -73.30889 | 19023 ft | 326 kts | 229° |
| 2026-05-04 00:35 | 40.08212 | -73.32882 | 18849 ft | 326 kts | 229° |
| 2026-05-04 00:36 | 40.06536 | -73.34874 | 18686 ft | 326 kts | 229° |
| 2026-05-04 00:36 | 40.04860 | -73.36863 | 18524 ft | 325 kts | 229° |
| 2026-05-04 00:36 | 40.03188 | -73.38844 | 18358 ft | 325 kts | 229° |
| 2026-05-04 00:36 | 40.01515 | -73.40824 | 18169 ft | 324 kts | 228° |
| 2026-05-04 00:37 | 39.99846 | -73.42797 | 17986 ft | 322 kts | 228° |
| 2026-05-04 00:37 | 39.98220 | -73.44716 | 17844 ft | 310 kts | 229° |
| 2026-05-04 00:37 | 39.96636 | -73.46582 | 17704 ft | 305 kts | 229° |
| 2026-05-04 00:37 | 39.95070 | -73.48431 | 17571 ft | 303 kts | 229° |
| 2026-05-04 00:38 | 39.93507 | -73.50276 | 17419 ft | 301 kts | 229° |
| 2026-05-04 00:38 | 39.91985 | -73.52075 | 17303 ft | 291 kts | 229° |
| 2026-05-04 00:38 | 39.90508 | -73.53855 | 17200 ft | 287 kts | 232° |
| 2026-05-04 00:38 | 39.89195 | -73.55784 | 17098 ft | 283 kts | 237° |
| 2026-05-04 00:39 | 39.87960 | -73.57775 | 16992 ft | 283 kts | 237° |
| 2026-05-04 00:39 | 39.86717 | -73.59759 | 16890 ft | 285 kts | 237° |
| 2026-05-04 00:39 | 39.85445 | -73.61790 | 16776 ft | 292 kts | 237° |
| 2026-05-04 00:39 | 39.84152 | -73.63848 | 16641 ft | 294 kts | 236° |
| 2026-05-04 00:40 | 39.82853 | -73.65905 | 16507 ft | 295 kts | 236° |
| 2026-05-04 00:40 | 39.81548 | -73.67965 | 16372 ft | 296 kts | 236° |
| 2026-05-04 00:40 | 39.80238 | -73.70036 | 16241 ft | 296 kts | 236° |
| 2026-05-04 00:40 | 39.78902 | -73.72156 | 16114 ft | 309 kts | 236° |
| 2026-05-04 00:41 | 39.77528 | -73.74336 | 15990 ft | 314 kts | 236° |
| 2026-05-04 00:41 | 39.76140 | -73.76531 | 15863 ft | 314 kts | 236° |
| 2026-05-04 00:41 | 39.74755 | -73.78714 | 15725 ft | 312 kts | 236° |
| 2026-05-04 00:41 | 39.73375 | -73.80883 | 15594 ft | 311 kts | 236° |
| 2026-05-04 00:42 | 39.71999 | -73.83048 | 15465 ft | 311 kts | 236° |
| 2026-05-04 00:42 | 39.70625 | -73.85210 | 15313 ft | 310 kts | 236° |
| 2026-05-04 00:42 | 39.69251 | -73.87373 | 15162 ft | 310 kts | 236° |
| 2026-05-04 00:42 | 39.67880 | -73.89530 | 15013 ft | 310 kts | 236° |
| 2026-05-04 00:43 | 39.66509 | -73.91685 | 14857 ft | 309 kts | 236° |
| 2026-05-04 00:43 | 39.65156 | -73.93806 | 14732 ft | 309 kts | 236° |
| 2026-05-04 00:43 | 39.63787 | -73.95959 | 14638 ft | 309 kts | 236° |
| 2026-05-04 00:43 | 39.62421 | -73.98111 | 14535 ft | 309 kts | 236° |
| 2026-05-04 00:44 | 39.61049 | -74.00263 | 14442 ft | 309 kts | 236° |
| 2026-05-04 00:44 | 39.59675 | -74.02415 | 14339 ft | 311 kts | 236° |
| 2026-05-04 00:44 | 39.58295 | -74.04581 | 14241 ft | 312 kts | 236° |
| 2026-05-04 00:44 | 39.56915 | -74.06743 | 14121 ft | 312 kts | 236° |
| 2026-05-04 00:45 | 39.55556 | -74.08927 | 13995 ft | 310 kts | 239° |
| 2026-05-04 00:45 | 39.54414 | -74.11278 | 14015 ft | 307 kts | 246° |
| 2026-05-04 00:45 | 39.53542 | -74.13778 | 14017 ft | 304 kts | 254° |
| 2026-05-04 00:45 | 39.52935 | -74.16385 | 14017 ft | 301 kts | 261° |
| 2026-05-04 00:46 | 39.52596 | -74.19042 | 13994 ft | 297 kts | 267° |
| 2026-05-04 00:46 | 39.52507 | -74.21696 | 13575 ft | 294 kts | 274° |
| 2026-05-04 00:46 | 39.52561 | -74.24336 | 13088 ft | 293 kts | 274° |
| 2026-05-04 00:46 | 39.52613 | -74.26964 | 12665 ft | 292 kts | 274° |
| 2026-05-04 00:47 | 39.52662 | -74.29586 | 12239 ft | 291 kts | 275° |
| 2026-05-04 00:47 | 39.52711 | -74.32200 | 11820 ft | 290 kts | 275° |
| 2026-05-04 00:47 | 39.52759 | -74.34806 | 11409 ft | 288 kts | 275° |
| 2026-05-04 00:47 | 39.52806 | -74.37398 | 11025 ft | 287 kts | 275° |
| 2026-05-04 00:48 | 39.52852 | -74.39991 | 10709 ft | 288 kts | 275° |
| 2026-05-04 00:48 | 39.52900 | -74.42581 | 10384 ft | 288 kts | 275° |
| 2026-05-04 00:48 | 39.52945 | -74.45134 | 10072 ft | 287 kts | 275° |
| 2026-05-04 00:48 | 39.52990 | -74.47705 | 9741 ft | 284 kts | 275° |
| 2026-05-04 00:49 | 39.53033 | -74.50243 | 9389 ft | 280 kts | 275° |
| 2026-05-04 00:49 | 39.53077 | -74.52747 | 9066 ft | 276 kts | 275° |
| 2026-05-04 00:49 | 39.53119 | -74.55190 | 8897 ft | 267 kts | 275° |
| 2026-05-04 00:49 | 39.53159 | -74.57566 | 8764 ft | 263 kts | 275° |
| 2026-05-04 00:50 | 39.53196 | -74.59930 | 8628 ft | 262 kts | 275° |
| 2026-05-04 00:50 | 39.53234 | -74.62291 | 8496 ft | 261 kts | 275° |
| 2026-05-04 00:50 | 39.53274 | -74.64639 | 8365 ft | 261 kts | 275° |
| 2026-05-04 00:50 | 39.53311 | -74.66984 | 8230 ft | 260 kts | 275° |
| 2026-05-04 00:51 | 39.53346 | -74.69316 | 8106 ft | 259 kts | 275° |
| 2026-05-04 00:51 | 39.53383 | -74.71644 | 7975 ft | 258 kts | 275° |
| 2026-05-04 00:51 | 39.53419 | -74.73964 | 7846 ft | 257 kts | 275° |
| 2026-05-04 00:51 | 39.53454 | -74.76275 | 7717 ft | 256 kts | 275° |
| 2026-05-04 00:52 | 39.53490 | -74.78577 | 7586 ft | 255 kts | 275° |
| 2026-05-04 00:52 | 39.53525 | -74.80872 | 7458 ft | 255 kts | 275° |
| 2026-05-04 00:52 | 39.53560 | -74.83161 | 7330 ft | 254 kts | 274° |
| 2026-05-04 00:52 | 39.53592 | -74.85420 | 7200 ft | 246 kts | 274° |
| 2026-05-04 00:53 | 39.53622 | -74.87595 | 7094 ft | 236 kts | 274° |
| 2026-05-04 00:53 | 39.53651 | -74.89681 | 6992 ft | 227 kts | 274° |
| 2026-05-04 00:53 | 39.53748 | -74.91678 | 6887 ft | 219 kts | 281° |
| 2026-05-04 00:53 | 39.54072 | -74.93585 | 6800 ft | 216 kts | 289° |
| 2026-05-04 00:54 | 39.54603 | -74.95396 | 6696 ft | 214 kts | 296° |
| 2026-05-04 00:54 | 39.55324 | -74.97075 | 6593 ft | 213 kts | 303° |
| 2026-05-04 00:54 | 39.56223 | -74.98602 | 6493 ft | 213 kts | 311° |
| 2026-05-04 00:54 | 39.57289 | -74.99942 | 6395 ft | 214 kts | 318° |
| 2026-05-04 00:55 | 39.58486 | -75.01091 | 6288 ft | 215 kts | 322° |
| 2026-05-04 00:55 | 39.59698 | -75.02211 | 6177 ft | 211 kts | 322° |
| 2026-05-04 00:55 | 39.60879 | -75.03313 | 6081 ft | 219 kts | 321° |
| 2026-05-04 00:55 | 39.62130 | -75.04489 | 5979 ft | 224 kts | 322° |
| 2026-05-04 00:56 | 39.63399 | -75.05666 | 5881 ft | 225 kts | 324° |
| 2026-05-04 00:56 | 39.64771 | -75.06652 | 5786 ft | 228 kts | 333° |
| 2026-05-04 00:56 | 39.66272 | -75.07353 | 5733 ft | 231 kts | 341° |
| 2026-05-04 00:56 | 39.67860 | -75.07734 | 5700 ft | 234 kts | 350° |
| 2026-05-04 00:57 | 39.69501 | -75.07778 | 5703 ft | 238 kts | 359° |
| 2026-05-04 00:57 | 39.71138 | -75.07474 | 5610 ft | 239 kts | 8° |
| 2026-05-04 00:57 | 39.72723 | -75.06810 | 5510 ft | 238 kts | 18° |
| 2026-05-04 00:57 | 39.74180 | -75.05833 | 5406 ft | 234 kts | 26° |
| 2026-05-04 00:58 | 39.75470 | -75.04583 | 5303 ft | 230 kts | 36° |
| 2026-05-04 00:58 | 39.76593 | -75.03094 | 5196 ft | 231 kts | 42° |
| 2026-05-04 00:58 | 39.77672 | -75.01549 | 5093 ft | 229 kts | 42° |
| 2026-05-04 00:58 | 39.78727 | -75.00041 | 4985 ft | 222 kts | 41° |
| 2026-05-04 00:59 | 39.79760 | -74.98573 | 4936 ft | 220 kts | 41° |
| 2026-05-04 00:59 | 39.80792 | -74.97106 | 4948 ft | 220 kts | 41° |
| 2026-05-04 00:59 | 39.81823 | -74.95643 | 4960 ft | 220 kts | 41° |
| 2026-05-04 00:59 | 39.82829 | -74.94139 | 4998 ft | 222 kts | 48° |
| 2026-05-04 01:00 | 39.83608 | -74.92389 | 5069 ft | 227 kts | 61° |
| 2026-05-04 01:00 | 39.84099 | -74.90419 | 5166 ft | 230 kts | 71° |
| 2026-05-04 01:00 | 39.84494 | -74.88451 | 5091 ft | 219 kts | 70° |
| 2026-05-04 01:00 | 39.84876 | -74.86611 | 4963 ft | 209 kts | 66° |
| 2026-05-04 01:01 | 39.85522 | -74.84972 | 4847 ft | 200 kts | 47° |
| 2026-05-04 01:01 | 39.86478 | -74.83703 | 4711 ft | 193 kts | 30° |
| 2026-05-04 01:01 | 39.87627 | -74.82866 | 4575 ft | 187 kts | 14° |
| 2026-05-04 01:01 | 39.88871 | -74.82482 | 4453 ft | 182 kts | 359° |
| 2026-05-04 01:02 | 39.90113 | -74.82539 | 4329 ft | 177 kts | 345° |
| 2026-05-04 01:02 | 39.91274 | -74.83003 | 4214 ft | 173 kts | 331° |
| 2026-05-04 01:02 | 39.92286 | -74.83823 | 4081 ft | 171 kts | 317° |
| 2026-05-04 01:02 | 39.93089 | -74.84923 | 3954 ft | 161 kts | 304° |
| 2026-05-04 01:03 | 39.93618 | -74.86122 | 3851 ft | 149 kts | 294° |
| 2026-05-04 01:03 | 39.93923 | -74.87402 | 3709 ft | 148 kts | 282° |
| 2026-05-04 01:03 | 39.93953 | -74.88747 | 3589 ft | 150 kts | 268° |
| 2026-05-04 01:03 | 39.93796 | -74.90089 | 3455 ft | 150 kts | 263° |
| 2026-05-04 01:04 | 39.93581 | -74.91425 | 3330 ft | 150 kts | 261° |
| 2026-05-04 01:04 | 39.93342 | -74.92749 | 3202 ft | 150 kts | 261° |
| 2026-05-04 01:04 | 39.93091 | -74.94070 | 3099 ft | 150 kts | 260° |
| 2026-05-04 01:04 | 39.92836 | -74.95392 | 3031 ft | 151 kts | 260° |
| 2026-05-04 01:05 | 39.92578 | -74.96714 | 3010 ft | 150 kts | 260° |
| 2026-05-04 01:05 | 39.92319 | -74.98032 | 3007 ft | 150 kts | 259° |
| 2026-05-04 01:05 | 39.92061 | -74.99349 | 3007 ft | 150 kts | 260° |
| 2026-05-04 01:05 | 39.91801 | -75.00669 | 3020 ft | 150 kts | 259° |
| 2026-05-04 01:06 | 39.91545 | -75.01967 | 3017 ft | 150 kts | 259° |
| 2026-05-04 01:06 | 39.91282 | -75.03301 | 2931 ft | 148 kts | 260° |
| 2026-05-04 01:06 | 39.91043 | -75.04505 | 2787 ft | 134 kts | 260° |
| 2026-05-04 01:06 | 39.90817 | -75.05654 | 2625 ft | 129 kts | 260° |
| 2026-05-04 01:07 | 39.90596 | -75.06777 | 2460 ft | 127 kts | 259° |
| 2026-05-04 01:07 | 39.90377 | -75.07887 | 2294 ft | 126 kts | 259° |
| 2026-05-04 01:07 | 39.90158 | -75.08992 | 2122 ft | 126 kts | 259° |
| 2026-05-04 01:07 | 39.89940 | -75.10095 | 1955 ft | 126 kts | 259° |
| 2026-05-04 01:08 | 39.89722 | -75.11196 | 1784 ft | 125 kts | 259° |
| 2026-05-04 01:08 | 39.89505 | -75.12295 | 1613 ft | 126 kts | 259° |
| 2026-05-04 01:08 | 39.89286 | -75.13399 | 1441 ft | 126 kts | 258° |
| 2026-05-04 01:08 | 39.89067 | -75.14505 | 1273 ft | 126 kts | 258° |
| 2026-05-04 01:09 | 39.88923 | -75.15233 | 1156 ft | 126 kts | 258° |
| 2026-05-04 01:09 | 39.88702 | -75.16348 | 995 ft | 127 kts | 257° |
| 2026-05-04 01:09 | 39.88480 | -75.17463 | 802 ft | 127 kts | 256° |
| 2026-05-04 01:09 | 39.88256 | -75.18574 | 672 ft | 127 kts | 256° |
| 2026-05-04 01:10 | 39.88035 | -75.19693 | 473 ft | 128 kts | 255° |
| 2026-05-04 01:10 | 39.87809 | -75.20811 | 308 ft | 127 kts | 256° |
| 2026-05-04 01:10 | 39.87592 | -75.21924 | 121 ft | 127 kts | 256° |
| 2026-05-04 01:10 | 39.87384 | -75.23004 | 17 ft | 107 kts | 256° |
| 2026-05-04 01:11 | 39.87267 | -75.23571 | 17 ft | 35 kts | 256° |
| 2026-05-04 01:11 | 39.87251 | -75.23820 | 21 ft | 13 kts | 310° |
| 2026-05-04 01:11 | 39.87355 | -75.23877 | 21 ft | 20 kts | 348° |
| 2026-05-04 01:11 | 39.87384 | -75.23938 | 20 ft | 6 kts | 261° |
| 2026-05-04 01:12 | 39.87413 | -75.23996 | 20 ft | 1 kts | 330° |
| 2026-05-04 01:12 | 39.87423 | -75.24004 | 20 ft | 0 kts | 332° |